Time;durP1;ratioP1;P1;durP2;ratioP2;P2;SDS_P1;SDS_P2;PMS_P1;PMS_P2;Temp;Humidity;BMP_temperature;BMP_pressure;BME280_temperature;BME280_humidity;BME280_pressure;Samples;Min_cycle;Max_cycle;Signal;HPM_P1;HPM_P2
2022/10/22 00:01:03;;;;;;;12.27;2.00;;;15.40;99.90;;;;;;5074677;28;20080;-61
2022/10/22 00:03:29;;;;;;;12.45;2.50;;;15.40;99.90;;;;;;5076381;28;20426;-62
2022/10/22 00:05:56;;;;;;;8.70;2.42;;;15.40;99.90;;;;;;5076155;28;20136;-61
2022/10/22 00:08:23;;;;;;;11.68;2.10;;;15.40;99.90;;;;;;5076003;28;20075;-63
2022/10/22 00:10:49;;;;;;;16.73;2.30;;;15.40;99.90;;;;;;5077000;28;20158;-61
2022/10/22 00:13:16;;;;;;;11.00;2.30;;;15.40;99.90;;;;;;5075786;28;20067;-63
2022/10/22 00:15:43;;;;;;;10.38;2.10;;;15.40;99.90;;;;;;5075973;28;20060;-63
2022/10/22 00:18:14;;;;;;;13.45;2.30;;;15.40;99.90;;;;;;5074739;28;20049;-65
2022/10/22 00:20:42;;;;;;;11.80;2.38;;;15.40;99.90;;;;;;5074938;28;20120;-62
2022/10/22 00:23:08;;;;;;;14.15;2.30;;;15.30;99.90;;;;;;5075251;28;20450;-64
2022/10/22 00:25:35;;;;;;;11.52;2.50;;;15.30;99.90;;;;;;5075830;28;20361;-63
2022/10/22 00:28:02;;;;;;;11.90;2.08;;;15.30;99.90;;;;;;5075734;28;20394;-64
2022/10/22 00:30:29;;;;;;;13.30;2.92;;;15.30;99.90;;;;;;5075659;28;20098;-63
2022/10/22 00:32:56;;;;;;;12.00;2.28;;;15.30;99.90;;;;;;5075687;28;20044;-64
2022/10/22 00:35:22;;;;;;;12.57;1.90;;;15.30;99.90;;;;;;5075421;28;20076;-62
2022/10/22 00:37:49;;;;;;;10.75;2.50;;;15.30;99.90;;;;;;5075427;28;20098;-62
2022/10/22 00:40:16;;;;;;;12.48;2.53;;;15.30;99.90;;;;;;5075601;28;20072;-61
2022/10/22 00:42:43;;;;;;;11.27;2.50;;;15.40;99.90;;;;;;5075392;28;20373;-63
2022/10/22 00:45:09;;;;;;;9.43;1.77;;;15.40;99.90;;;;;;5075026;28;20048;-62
2022/10/22 00:47:36;;;;;;;10.63;2.33;;;15.40;99.90;;;;;;5075219;28;20083;-62
2022/10/22 00:50:03;;;;;;;10.52;2.28;;;15.40;99.90;;;;;;5073946;28;20052;-61
2022/10/22 00:52:34;;;;;;;10.48;1.90;;;15.40;99.90;;;;;;5074181;28;20500;-61
2022/10/22 00:55:01;;;;;;;8.48;1.83;;;15.40;99.90;;;;;;5075247;28;20215;-63
2022/10/22 00:57:28;;;;;;;10.07;1.63;;;15.40;99.90;;;;;;5075065;28;20051;-64
2022/10/22 00:59:54;;;;;;;10.57;2.25;;;15.40;99.90;;;;;;5074789;28;20040;-63
2022/10/22 01:02:21;;;;;;;13.23;1.90;;;15.40;99.90;;;;;;5075420;28;20456;-63
2022/10/22 01:04:48;;;;;;;9.45;1.80;;;15.40;99.90;;;;;;5074555;28;20123;-63
2022/10/22 01:07:15;;;;;;;9.65;2.17;;;15.40;99.90;;;;;;5074728;28;20049;-62
2022/10/22 01:09:41;;;;;;;12.75;2.95;;;15.30;99.90;;;;;;5073704;28;20040;-64
2022/10/22 01:12:08;;;;;;;12.80;2.45;;;15.40;99.90;;;;;;5074701;28;20071;-62
2022/10/22 01:14:35;;;;;;;11.25;2.28;;;15.40;99.90;;;;;;5074546;28;20041;-63
2022/10/22 01:17:01;;;;;;;13.90;3.03;;;15.30;99.90;;;;;;5075048;28;20059;-61
2022/10/22 01:19:28;;;;;;;12.70;2.30;;;15.30;99.90;;;;;;5073329;28;20502;-62
2022/10/22 01:21:55;;;;;;;15.38;2.88;;;15.30;99.90;;;;;;5074340;28;20067;-63
2022/10/22 01:24:21;;;;;;;12.95;2.22;;;15.30;99.90;;;;;;5074587;28;20133;-63
2022/10/22 01:26:48;;;;;;;12.13;2.40;;;15.20;99.90;;;;;;5074825;28;20068;-63
2022/10/22 01:29:15;;;;;;;15.88;3.05;;;15.20;99.90;;;;;;5073519;28;20383;-65
2022/10/22 01:31:43;;;;;;;13.75;2.22;;;15.10;99.90;;;;;;5074730;28;20040;-63
2022/10/22 01:34:10;;;;;;;16.45;3.00;;;15.10;99.90;;;;;;5074074;28;20040;-62
2022/10/22 01:36:36;;;;;;;15.40;2.70;;;15.00;99.90;;;;;;5074248;28;20041;-64
2022/10/22 01:39:03;;;;;;;12.52;2.15;;;15.00;99.90;;;;;;5074419;28;20060;-63
2022/10/22 01:41:30;;;;;;;16.48;2.80;;;15.00;99.90;;;;;;5074559;28;20127;-62
2022/10/22 01:43:56;;;;;;;11.70;3.15;;;14.90;99.90;;;;;;5073686;28;20590;-64
2022/10/22 01:46:23;;;;;;;13.95;2.63;;;14.90;99.90;;;;;;5073937;28;20062;-61
2022/10/22 01:48:50;;;;;;;14.50;2.50;;;14.90;99.90;;;;;;5074114;28;20040;-66
2022/10/22 01:51:17;;;;;;;11.23;2.08;;;14.90;99.90;;;;;;5073941;28;20127;-64
2022/10/22 01:53:43;;;;;;;14.35;2.70;;;14.90;99.90;;;;;;5073735;28;20499;-62
2022/10/22 01:56:15;;;;;;;14.57;2.33;;;14.90;99.90;;;;;;5073088;28;20537;-64
2022/10/22 01:58:42;;;;;;;13.07;2.20;;;14.90;99.90;;;;;;5072384;28;20598;-60
2022/10/22 02:01:08;;;;;;;11.32;2.47;;;15.00;99.90;;;;;;5073873;28;20065;-60
2022/10/22 02:03:35;;;;;;;17.95;2.63;;;15.00;99.90;;;;;;5073926;28;20098;-62
2022/10/22 02:06:02;;;;;;;11.70;2.22;;;15.00;99.90;;;;;;5073536;28;20084;-61
2022/10/22 02:08:29;;;;;;;9.15;1.92;;;15.00;99.90;;;;;;5074091;28;20127;-60
2022/10/22 02:10:56;;;;;;;10.32;2.13;;;15.00;99.90;;;;;;5074212;28;20041;-61
2022/10/22 02:13:22;;;;;;;11.30;2.33;;;14.90;99.90;;;;;;5073937;28;20040;-61
2022/10/22 02:15:49;;;;;;;11.30;2.53;;;14.90;99.90;;;;;;5073626;28;20441;-62
2022/10/22 02:18:16;;;;;;;10.30;1.83;;;15.00;99.90;;;;;;5073724;28;20064;-61
2022/10/22 02:20:42;;;;;;;11.27;2.50;;;15.00;99.90;;;;;;5072258;28;20395;-63
2022/10/22 02:23:09;;;;;;;11.82;2.28;;;15.00;99.90;;;;;;5073879;28;20041;-63
2022/10/22 02:25:36;;;;;;;11.07;2.28;;;15.00;99.90;;;;;;5073867;28;20383;-63
2022/10/22 02:28:02;;;;;;;13.63;2.47;;;15.00;99.90;;;;;;5073801;28;20086;-63
2022/10/22 02:30:29;;;;;;;13.30;2.40;;;15.00;99.90;;;;;;5073351;28;20037;-64
2022/10/22 02:32:56;;;;;;;12.18;2.42;;;15.00;99.90;;;;;;5073492;28;20041;-63
2022/10/22 02:35:23;;;;;;;15.13;2.47;;;15.00;99.90;;;;;;5073210;28;20052;-61
2022/10/22 02:37:50;;;;;;;10.57;2.25;;;14.90;99.90;;;;;;5073230;28;20050;-62
2022/10/22 02:40:16;;;;;;;9.45;2.90;;;14.90;99.90;;;;;;5073379;28;20526;-61
2022/10/22 02:42:43;;;;;;;11.05;1.90;;;14.90;99.90;;;;;;5073488;28;20399;-62
2022/10/22 02:45:10;;;;;;;12.30;2.80;;;14.90;99.90;;;;;;5075240;28;20132;-64
2022/10/22 02:47:37;;;;;;;9.57;1.90;;;14.80;99.90;;;;;;5077858;28;20094;-61
2022/10/22 02:50:03;;;;;;;8.65;2.00;;;14.80;99.90;;;;;;5077366;28;20064;-60
2022/10/22 02:52:35;;;;;;;9.25;1.90;;;14.80;99.90;;;;;;5077966;28;20091;-62
2022/10/22 02:55:03;;;;;;;9.80;2.35;;;14.80;99.90;;;;;;5077149;28;20450;-63
2022/10/22 02:57:29;;;;;;;7.97;1.73;;;14.70;99.90;;;;;;5077442;28;20123;-63
2022/10/22 02:59:56;;;;;;;11.00;1.83;;;14.80;99.90;;;;;;5076069;28;20048;-61
2022/10/22 03:02:23;;;;;;;8.23;1.95;;;14.70;99.90;;;;;;5077471;28;20044;-62
2022/10/22 03:04:50;;;;;;;8.88;1.55;;;14.80;99.90;;;;;;5077428;28;20460;-62
2022/10/22 03:07:16;;;;;;;8.20;1.48;;;14.80;99.90;;;;;;5076750;28;20075;-60
2022/10/22 03:09:43;;;;;;;11.77;1.80;;;14.80;99.90;;;;;;5075907;28;20068;-63
2022/10/22 03:12:10;;;;;;;11.25;2.20;;;14.90;99.90;;;;;;5075963;28;20123;-61
2022/10/22 03:14:37;;;;;;;10.40;1.80;;;14.90;99.90;;;;;;5077120;28;20040;-61
2022/10/22 03:17:03;;;;;;;9.88;1.98;;;14.90;99.90;;;;;;5077012;28;20124;-60
2022/10/22 03:19:30;;;;;;;7.55;1.58;;;14.90;99.90;;;;;;5076722;28;20048;-60
2022/10/22 03:21:57;;;;;;;9.93;1.63;;;14.90;99.90;;;;;;5076640;28;20101;-61
2022/10/22 03:24:23;;;;;;;8.88;1.80;;;14.90;99.90;;;;;;5076754;28;20037;-62
2022/10/22 03:26:51;;;;;;;7.97;1.77;;;14.90;99.90;;;;;;5075911;28;20044;-61
2022/10/22 03:29:17;;;;;;;5.15;1.55;;;14.90;99.90;;;;;;5076834;28;20041;-62
2022/10/22 03:31:44;;;;;;;8.52;1.65;;;14.90;99.90;;;;;;5076700;28;20484;-61
2022/10/22 03:34:12;;;;;;;9.57;1.80;;;15.00;99.90;;;;;;5076670;28;20083;-62
2022/10/22 03:36:39;;;;;;;8.98;1.80;;;15.00;99.90;;;;;;5077084;28;20041;-60
2022/10/22 03:39:05;;;;;;;9.93;1.60;;;15.00;99.90;;;;;;5076433;28;20036;-62
2022/10/22 03:41:32;;;;;;;9.52;1.70;;;15.00;99.90;;;;;;5075231;28;20049;-63
2022/10/22 03:43:59;;;;;;;8.23;1.33;;;15.00;99.90;;;;;;5076348;28;20115;-64
2022/10/22 03:46:26;;;;;;;8.48;1.50;;;15.00;99.90;;;;;;5076108;28;20097;-60
2022/10/22 03:48:52;;;;;;;8.00;1.75;;;15.00;99.90;;;;;;5076394;28;20082;-61
2022/10/22 03:51:19;;;;;;;11.90;1.95;;;15.00;99.90;;;;;;5076133;28;20040;-65
2022/10/22 03:53:46;;;;;;;7.28;1.30;;;15.00;99.90;;;;;;5076290;28;20033;-61
2022/10/22 03:56:13;;;;;;;8.52;1.50;;;15.00;99.90;;;;;;5076214;28;20041;-61
2022/10/22 03:58:39;;;;;;;9.05;1.48;;;15.00;99.90;;;;;;5076280;28;20082;-64
2022/10/22 04:01:06;;;;;;;8.43;1.40;;;15.00;99.90;;;;;;5075291;28;20442;-62
2022/10/22 04:03:33;;;;;;;7.00;1.45;;;15.00;99.90;;;;;;5076550;28;20044;-61
2022/10/22 04:05:59;;;;;;;10.32;1.70;;;14.90;99.90;;;;;;5076313;28;20506;-61
2022/10/22 04:08:26;;;;;;;8.40;1.60;;;14.80;99.90;;;;;;5075850;28;20117;-62
2022/10/22 04:10:53;;;;;;;9.57;1.63;;;14.80;99.90;;;;;;5075837;28;20128;-63
2022/10/22 04:13:19;;;;;;;7.25;1.52;;;14.70;99.90;;;;;;5076188;28;20128;-60
2022/10/22 04:15:46;;;;;;;8.88;1.67;;;14.60;99.90;;;;;;5076273;28;20507;-61
2022/10/22 04:18:13;;;;;;;10.15;1.80;;;14.60;99.90;;;;;;5076277;28;20056;-63
2022/10/22 04:20:39;;;;;;;7.07;1.48;;;14.50;99.90;;;;;;5075609;28;20396;-63
2022/10/22 04:23:06;;;;;;;13.75;2.35;;;14.50;99.90;;;;;;5075693;28;20076;-61
2022/10/22 04:25:33;;;;;;;10.57;1.98;;;14.40;99.90;;;;;;5075567;28;20036;-62
2022/10/22 04:28:00;;;;;;;13.60;2.35;;;14.40;99.90;;;;;;5075917;28;20045;-62
2022/10/22 04:30:26;;;;;;;8.18;1.65;;;14.30;99.90;;;;;;5075597;28;20120;-60
2022/10/22 04:32:53;;;;;;;15.23;2.03;;;14.30;99.90;;;;;;5075988;28;20072;-62
2022/10/22 04:35:20;;;;;;;11.15;1.48;;;14.20;99.90;;;;;;5075570;28;20048;-62
2022/10/22 04:37:46;;;;;;;10.52;2.10;;;14.20;99.90;;;;;;5075794;28;20476;-60
2022/10/22 04:40:13;;;;;;;13.07;2.40;;;14.20;99.90;;;;;;5075354;28;20105;-62
2022/10/22 04:42:40;;;;;;;11.07;2.00;;;14.10;99.90;;;;;;5075490;28;20071;-63
2022/10/22 04:45:06;;;;;;;13.20;1.90;;;14.10;99.90;;;;;;5075126;28;20549;-62
2022/10/22 04:47:33;;;;;;;12.00;2.00;;;14.00;99.90;;;;;;5075706;28;20470;-61
2022/10/22 04:50:00;;;;;;;14.32;2.55;;;14.00;99.90;;;;;;5075070;28;20044;-63
2022/10/22 04:52:27;;;;;;;10.85;2.35;;;14.00;99.90;;;;;;5075411;28;20037;-61
2022/10/22 04:54:53;;;;;;;11.57;2.20;;;13.90;99.90;;;;;;5074988;28;20123;-64
2022/10/22 04:57:20;;;;;;;10.90;2.03;;;13.90;99.90;;;;;;5075640;28;20123;-61
2022/10/22 04:59:47;;;;;;;15.27;2.38;;;13.90;99.90;;;;;;5074864;28;20127;-62
2022/10/22 05:02:13;;;;;;;18.40;2.47;;;13.80;99.90;;;;;;5075236;28;20052;-63
2022/10/22 05:04:40;;;;;;;12.95;2.30;;;13.80;99.90;;;;;;5075194;28;20036;-64
2022/10/22 05:07:07;;;;;;;16.75;3.15;;;13.80;99.90;;;;;;5074407;28;20127;-62
2022/10/22 05:09:33;;;;;;;9.50;2.00;;;13.80;99.90;;;;;;5074786;28;20047;-64
2022/10/22 05:12:00;;;;;;;15.32;2.10;;;13.80;99.90;;;;;;5075098;28;20131;-62
2022/10/22 05:14:27;;;;;;;14.82;3.10;;;13.70;99.90;;;;;;5074651;28;20040;-60
2022/10/22 05:16:54;;;;;;;13.60;2.40;;;13.70;99.90;;;;;;5074706;28;20123;-62
2022/10/22 05:19:22;;;;;;;10.77;2.03;;;13.70;99.90;;;;;;5073598;28;20064;-64
2022/10/22 05:21:49;;;;;;;10.40;2.63;;;13.60;99.90;;;;;;5075090;28;20067;-60
2022/10/22 05:24:16;;;;;;;13.45;2.85;;;13.60;99.90;;;;;;5074504;28;20048;-62
2022/10/22 05:26:43;;;;;;;9.85;2.17;;;13.60;99.90;;;;;;5074988;28;20110;-64
2022/10/22 05:29:09;;;;;;;16.98;2.35;;;13.60;99.90;;;;;;5074983;28;20349;-62
2022/10/22 05:31:37;;;;;;;12.10;2.80;;;13.60;99.90;;;;;;5074792;28;20032;-61
2022/10/22 05:34:04;;;;;;;18.75;2.60;;;13.50;99.90;;;;;;5074416;28;20036;-62
2022/10/22 05:36:31;;;;;;;13.93;2.45;;;13.50;99.90;;;;;;5074317;28;20068;-62
2022/10/22 05:38:57;;;;;;;13.70;3.00;;;13.50;99.90;;;;;;5073340;28;20165;-62
2022/10/22 05:41:24;;;;;;;16.13;2.60;;;13.50;99.90;;;;;;5073068;28;20502;-61
2022/10/22 05:43:51;;;;;;;17.65;2.53;;;13.40;99.90;;;;;;5074616;28;20095;-60
2022/10/22 05:46:17;;;;;;;15.10;2.25;;;13.40;99.90;;;;;;5074949;28;20094;-61
2022/10/22 05:48:48;;;;;;;13.25;2.40;;;13.30;99.90;;;;;;5074143;28;20054;-61
2022/10/22 05:51:15;;;;;;;15.18;2.35;;;13.30;99.90;;;;;;5074007;28;20040;-60
2022/10/22 05:53:42;;;;;;;17.38;2.80;;;13.30;99.90;;;;;;5074345;28;20048;-61
2022/10/22 05:56:09;;;;;;;16.17;2.40;;;13.30;99.90;;;;;;5074269;28;20127;-63
2022/10/22 05:58:35;;;;;;;15.70;3.33;;;13.30;99.90;;;;;;5074005;28;20052;-62
2022/10/22 06:01:02;;;;;;;16.05;2.90;;;13.30;99.90;;;;;;5072961;28;20072;-60
2022/10/22 06:03:30;;;;;;;16.02;2.80;;;13.20;99.90;;;;;;5073962;28;20044;-60
2022/10/22 06:05:57;;;;;;;18.58;2.95;;;13.30;99.90;;;;;;5073905;28;20086;-61
2022/10/22 06:08:24;;;;;;;15.88;2.65;;;13.20;99.90;;;;;;5073797;28;20064;-63
2022/10/22 06:10:50;;;;;;;16.67;2.53;;;13.20;99.90;;;;;;5073636;28;20071;-62
2022/10/22 06:13:17;;;;;;;20.25;3.17;;;13.20;99.90;;;;;;5074290;28;20037;-61
2022/10/22 06:15:44;;;;;;;17.98;3.03;;;13.20;99.90;;;;;;5073705;28;20111;-62
2022/10/22 06:18:11;;;;;;;20.33;3.40;;;13.20;99.90;;;;;;5074003;28;20040;-61
2022/10/22 06:20:37;;;;;;;20.20;3.10;;;13.20;99.90;;;;;;5073042;28;20079;-60
2022/10/22 06:23:04;;;;;;;20.08;3.33;;;13.20;99.90;;;;;;5073413;28;20044;-62
2022/10/22 06:25:31;;;;;;;15.95;3.45;;;13.20;99.90;;;;;;5073242;28;20090;-62
2022/10/22 06:27:58;;;;;;;15.07;3.00;;;13.20;99.90;;;;;;5073509;28;20044;-60
2022/10/22 06:30:24;;;;;;;13.88;3.03;;;13.20;99.90;;;;;;5073596;28;20115;-62
2022/10/22 06:32:51;;;;;;;17.98;2.88;;;13.20;99.90;;;;;;5073757;28;20131;-61
2022/10/22 06:35:18;;;;;;;21.42;3.25;;;13.20;99.90;;;;;;5073724;28;20044;-63
2022/10/22 06:37:46;;;;;;;18.73;3.70;;;13.20;99.90;;;;;;5073500;28;20041;-61
2022/10/22 06:40:13;;;;;;;18.50;3.45;;;13.20;99.90;;;;;;5074124;28;20517;-62
2022/10/22 06:42:39;;;;;;;23.98;4.13;;;13.20;99.90;;;;;;5073498;28;20560;-61
2022/10/22 06:45:06;;;;;;;20.27;3.65;;;13.20;99.90;;;;;;5073570;28;20040;-63
2022/10/22 06:47:33;;;;;;;20.48;3.28;;;13.20;99.90;;;;;;5072161;28;20068;-61
2022/10/22 06:50:00;;;;;;;21.38;3.22;;;13.20;99.90;;;;;;5073639;28;20119;-64
2022/10/22 06:52:27;;;;;;;21.20;3.38;;;13.20;99.90;;;;;;5073803;28;20476;-62
2022/10/22 06:54:53;;;;;;;23.17;3.97;;;13.20;99.90;;;;;;5073263;28;20087;-62
2022/10/22 06:57:20;;;;;;;21.00;3.83;;;13.20;99.90;;;;;;5072265;28;20041;-62
2022/10/22 06:59:47;;;;;;;24.05;3.63;;;13.20;99.90;;;;;;5073293;28;20048;-63
2022/10/22 07:02:14;;;;;;;20.48;3.53;;;13.20;99.90;;;;;;5073622;28;20036;-63
2022/10/22 07:04:40;;;;;;;19.00;3.60;;;13.20;99.90;;;;;;5073136;28;20128;-62
2022/10/22 07:07:07;;;;;;;26.20;3.53;;;13.20;99.90;;;;;;5073054;28;20139;-61
2022/10/22 07:09:34;;;;;;;21.15;3.50;;;13.20;99.90;;;;;;5073143;28;20032;-61
2022/10/22 07:12:01;;;;;;;25.42;3.90;;;13.20;99.90;;;;;;5073471;28;20089;-64
2022/10/22 07:14:27;;;;;;;25.73;4.00;;;13.30;99.90;;;;;;5074199;28;20114;-62
2022/10/22 07:16:54;;;;;;;19.58;3.38;;;13.30;99.90;;;;;;5073734;28;20063;-62
2022/10/22 07:19:21;;;;;;;21.05;3.35;;;13.40;99.90;;;;;;5074084;28;20080;-63
2022/10/22 07:21:47;;;;;;;23.65;4.03;;;13.40;99.90;;;;;;5073931;28;20060;-61
2022/10/22 07:24:14;;;;;;;19.42;3.80;;;13.40;99.90;;;;;;5072432;28;20144;-60
2022/10/22 07:26:41;;;;;;;23.13;3.80;;;13.50;99.90;;;;;;5073098;28;20353;-63
2022/10/22 07:29:08;;;;;;;18.30;3.70;;;13.50;99.90;;;;;;5072809;28;20140;-63
2022/10/22 07:31:35;;;;;;;19.75;3.42;;;13.50;99.90;;;;;;5075794;28;20099;-62
2022/10/22 07:34:02;;;;;;;22.60;3.53;;;13.60;99.90;;;;;;5077134;28;20498;-61
2022/10/22 07:36:29;;;;;;;19.10;3.88;;;13.60;99.90;;;;;;5075398;28;20074;-61
2022/10/22 07:38:55;;;;;;;23.20;3.83;;;13.70;99.90;;;;;;5075178;28;20561;-61
2022/10/22 07:41:22;;;;;;;23.20;4.18;;;13.70;99.90;;;;;;5076345;28;20127;-62
2022/10/22 07:43:49;;;;;;;24.52;3.80;;;13.70;99.90;;;;;;5076297;28;20098;-62
2022/10/22 07:46:16;;;;;;;28.10;4.25;;;13.70;99.90;;;;;;5076329;28;20072;-63
2022/10/22 07:48:42;;;;;;;29.02;7.50;;;13.70;99.90;;;;;;5075840;28;20055;-62
2022/10/22 07:51:09;;;;;;;21.75;3.72;;;13.80;99.90;;;;;;5059119;28;20041;-61
2022/10/22 07:53:36;;;;;;;26.38;4.30;;;13.80;99.90;;;;;;5076208;28;20052;-61
2022/10/22 07:56:03;;;;;;;18.65;4.00;;;13.80;99.90;;;;;;5076501;28;20450;-61
2022/10/22 07:58:29;;;;;;;30.05;5.10;;;13.80;99.90;;;;;;5076756;28;20040;-62
2022/10/22 08:00:56;;;;;;;21.20;4.28;;;13.80;99.90;;;;;;5075985;28;20072;-61
2022/10/22 08:03:23;;;;;;;21.52;4.20;;;13.80;99.90;;;;;;5076374;28;20041;-61
2022/10/22 08:05:50;;;;;;;20.75;4.05;;;13.80;99.90;;;;;;5074097;28;20545;-62
2022/10/22 08:08:17;;;;;;;23.00;4.65;;;13.70;99.90;;;;;;5075933;28;20048;-61
2022/10/22 08:10:43;;;;;;;19.60;3.95;;;13.80;99.90;;;;;;5076156;28;20048;-62
2022/10/22 08:13:10;;;;;;;24.92;4.20;;;13.80;99.90;;;;;;5075381;28;20086;-62
2022/10/22 08:15:37;;;;;;;24.80;5.03;;;13.80;99.90;;;;;;5075911;28;20090;-62
2022/10/22 08:18:03;;;;;;;26.15;3.85;;;13.70;99.90;;;;;;5075856;28;20429;-63
2022/10/22 08:20:30;;;;;;;20.60;4.93;;;13.80;99.90;;;;;;5075689;28;20036;-61
2022/10/22 08:22:58;;;;;;;19.92;3.83;;;13.80;99.90;;;;;;5075944;28;20045;-61
2022/10/22 08:25:24;;;;;;;25.10;3.65;;;13.80;99.90;;;;;;5075361;28;20072;-61
2022/10/22 08:27:51;;;;;;;24.35;3.95;;;13.80;99.90;;;;;;5076220;28;20460;-62
2022/10/22 08:30:18;;;;;;;22.75;3.80;;;13.80;99.90;;;;;;5075644;28;20082;-62
2022/10/22 08:32:45;;;;;;;24.00;4.57;;;13.80;99.90;;;;;;5075336;28;20552;-63
2022/10/22 08:35:11;;;;;;;20.02;3.92;;;13.80;99.90;;;;;;5075903;28;20450;-61
2022/10/22 08:37:43;;;;;;;26.65;3.95;;;13.80;99.90;;;;;;5075410;28;20044;-64
2022/10/22 08:40:10;;;;;;;24.08;4.18;;;13.80;99.90;;;;;;5075480;28;20476;-62
2022/10/22 08:42:36;;;;;;;24.40;4.32;;;13.80;99.90;;;;;;5074439;28;20064;-62
2022/10/22 08:45:03;;;;;;;23.10;4.38;;;13.80;99.90;;;;;;5075703;28;20044;-63
2022/10/22 08:47:30;;;;;;;23.23;4.10;;;13.90;99.90;;;;;;5074950;28;20140;-62
2022/10/22 08:49:56;;;;;;;22.00;4.13;;;13.90;99.90;;;;;;5075330;28;20037;-60
2022/10/22 08:52:23;;;;;;;17.65;4.25;;;13.90;99.90;;;;;;5075439;28;20050;-61
2022/10/22 08:54:50;;;;;;;24.70;4.43;;;13.90;99.90;;;;;;5075088;28;20060;-61
2022/10/22 08:57:17;;;;;;;19.80;3.15;;;14.00;99.90;;;;;;5075481;28;20064;-61
2022/10/22 08:59:44;;;;;;;20.42;3.95;;;13.90;99.90;;;;;;5074966;28;20124;-60
2022/10/22 09:02:10;;;;;;;24.95;4.00;;;14.00;99.90;;;;;;5074808;28;20424;-62
2022/10/22 09:04:37;;;;;;;16.73;4.13;;;14.00;99.90;;;;;;5074969;28;20042;-60
2022/10/22 09:07:04;;;;;;;19.00;3.90;;;14.10;99.90;;;;;;5074557;28;20353;-62
2022/10/22 09:09:31;;;;;;;26.45;4.28;;;14.10;99.90;;;;;;5074737;28;20072;-63
2022/10/22 09:11:57;;;;;;;18.83;3.88;;;14.20;99.90;;;;;;5075301;28;20157;-63
2022/10/22 09:14:24;;;;;;;22.17;3.78;;;14.20;99.90;;;;;;5074616;28;20041;-62
2022/10/22 09:16:51;;;;;;;20.02;4.40;;;14.30;99.90;;;;;;5074496;28;20048;-62
2022/10/22 09:19:17;;;;;;;21.05;3.55;;;14.30;99.90;;;;;;5074743;28;20079;-60
2022/10/22 09:21:44;;;;;;;21.48;4.13;;;14.40;99.90;;;;;;5074982;28;20052;-60
2022/10/22 09:24:11;;;;;;;18.63;3.80;;;14.50;99.90;;;;;;5074274;28;20070;-62
2022/10/22 09:26:38;;;;;;;18.88;3.78;;;14.60;99.90;;;;;;5074380;28;20043;-61
2022/10/22 09:29:04;;;;;;;23.63;3.80;;;14.70;99.90;;;;;;5074415;28;20115;-64
2022/10/22 09:31:31;;;;;;;24.67;3.70;;;14.80;99.90;;;;;;5074312;28;20110;-62
2022/10/22 09:33:58;;;;;;;19.73;3.63;;;14.90;99.90;;;;;;5074213;28;20380;-62
2022/10/22 09:36:25;;;;;;;16.10;3.15;;;15.00;99.90;;;;;;5074581;28;20075;-61
2022/10/22 09:38:52;;;;;;;23.25;3.97;;;15.10;99.90;;;;;;5072732;28;20045;-60
2022/10/22 09:41:18;;;;;;;22.50;3.35;;;15.20;99.90;;;;;;5074570;28;20040;-63
2022/10/22 09:43:45;;;;;;;19.05;3.78;;;15.20;99.90;;;;;;5074372;28;20048;-64
2022/10/22 09:46:12;;;;;;;18.13;3.85;;;15.20;99.90;;;;;;5073872;28;20048;-63
2022/10/22 09:48:39;;;;;;;25.45;5.45;;;15.30;99.90;;;;;;5073983;28;20102;-63
2022/10/22 09:51:05;;;;;;;20.77;3.75;;;15.40;99.90;;;;;;5073638;28;20040;-62
2022/10/22 09:53:32;;;;;;;20.60;3.63;;;15.40;99.90;;;;;;5073794;28;20052;-64
2022/10/22 09:55:59;;;;;;;21.02;3.70;;;15.50;99.90;;;;;;5074306;28;20037;-62
2022/10/22 09:58:25;;;;;;;22.50;3.47;;;15.50;99.90;;;;;;5074105;28;20036;-63
2022/10/22 10:00:52;;;;;;;19.27;3.63;;;15.60;99.90;;;;;;5073681;28;20036;-65
2022/10/22 10:03:19;;;;;;;19.60;3.25;;;15.60;99.90;;;;;;5073896;28;20040;-62
2022/10/22 10:05:46;;;;;;;19.60;3.75;;;15.60;99.90;;;;;;5073214;28;20049;-62
2022/10/22 10:08:13;;;;;;;28.17;3.47;;;15.60;99.90;;;;;;5073729;28;20037;-63
2022/10/22 10:10:39;;;;;;;18.98;3.35;;;15.70;99.90;;;;;;5074051;28;20041;-62
2022/10/22 10:13:06;;;;;;;16.65;3.53;;;15.70;99.90;;;;;;5073468;28;20098;-65
2022/10/22 10:15:35;;;;;;;18.63;3.70;;;15.70;99.90;;;;;;5073452;28;20044;-62
2022/10/22 10:18:02;;;;;;;23.40;3.17;;;15.80;99.90;;;;;;5073695;28;20051;-63
2022/10/22 10:20:28;;;;;;;18.30;3.42;;;15.80;99.90;;;;;;5073557;28;20127;-62
2022/10/22 10:22:55;;;;;;;17.98;3.20;;;15.80;99.90;;;;;;5073521;28;20123;-60
2022/10/22 10:25:22;;;;;;;14.90;3.15;;;15.90;99.90;;;;;;5072585;28;20036;-61
2022/10/22 10:27:48;;;;;;;21.98;3.67;;;15.90;99.90;;;;;;5073118;28;20036;-63
2022/10/22 10:30:15;;;;;;;16.48;3.38;;;15.90;99.90;;;;;;5073601;28;20380;-63
2022/10/22 10:32:42;;;;;;;17.08;2.80;;;16.00;99.90;;;;;;5072326;28;20068;-64
2022/10/22 10:35:09;;;;;;;18.35;3.25;;;16.00;99.90;;;;;;5073420;28;20430;-63
2022/10/22 10:37:36;;;;;;;16.35;3.70;;;15.90;99.90;;;;;;5073327;28;20044;-62
2022/10/22 10:40:02;;;;;;;15.60;3.05;;;16.00;99.90;;;;;;5073412;28;20429;-62
2022/10/22 10:42:29;;;;;;;13.55;2.90;;;16.00;99.90;;;;;;5073418;28;20438;-62
2022/10/22 10:44:56;;;;;;;15.73;2.97;;;16.00;99.90;;;;;;5073197;28;20048;-64
2022/10/22 10:47:23;;;;;;;19.50;3.20;;;16.00;99.90;;;;;;5073187;28;20037;-63
2022/10/22 10:49:49;;;;;;;17.27;3.03;;;16.10;99.90;;;;;;5073844;28;20036;-62
2022/10/22 10:52:16;;;;;;;17.45;3.10;;;16.10;99.90;;;;;;5073071;28;20476;-64
2022/10/22 10:54:46;;;;;;;15.13;2.78;;;16.10;99.90;;;;;;5073211;28;20058;-64
2022/10/22 10:57:13;;;;;;;17.88;3.20;;;16.20;99.90;;;;;;5073260;28;20051;-63
2022/10/22 10:59:40;;;;;;;21.52;3.17;;;16.20;99.90;;;;;;5073176;28;20545;-62
2022/10/22 11:02:07;;;;;;;18.50;3.10;;;16.30;99.90;;;;;;5073069;28;20091;-64
2022/10/22 11:04:33;;;;;;;12.55;3.17;;;16.30;99.90;;;;;;5073206;28;20066;-62
2022/10/22 11:07:00;;;;;;;21.10;3.40;;;16.40;99.90;;;;;;5076048;28;20095;-65
2022/10/22 11:09:37;;;;;;;16.88;2.97;;;16.40;99.90;;;;;;5077151;28;20090;-61
2022/10/22 11:12:03;;;;;;;16.75;3.33;;;16.40;99.90;;;;;;5077288;28;20046;-63
2022/10/22 11:14:30;;;;;;;15.25;2.80;;;16.50;99.90;;;;;;5075691;28;20135;-64
2022/10/22 11:16:57;;;;;;;15.80;2.95;;;16.60;99.90;;;;;;5077026;28;20491;-62
2022/10/22 11:19:23;;;;;;;14.20;2.90;;;16.60;99.90;;;;;;5077130;28;20082;-61
2022/10/22 11:22:10;;;;;;;16.67;2.72;;;16.70;99.90;;;;;;5077097;28;20132;-63
2022/10/22 11:24:37;;;;;;;18.30;3.40;;;16.70;99.90;;;;;;5076670;28;20552;-65
2022/10/22 11:27:04;;;;;;;15.27;2.85;;;16.80;99.90;;;;;;5076608;28;20036;-62
2022/10/22 11:29:31;;;;;;;33.67;4.47;;;16.80;99.90;;;;;;5076471;28;20139;-63
2022/10/22 11:31:58;;;;;;;20.80;2.90;;;16.90;99.90;;;;;;5075365;28;20040;-60
2022/10/22 11:34:25;;;;;;;11.43;2.75;;;16.90;99.90;;;;;;5076714;28;20094;-62
2022/10/22 11:36:59;;;;;;;16.23;3.35;;;17.00;99.90;;;;;;5076808;28;20430;-62
2022/10/22 11:39:26;;;;;;;17.80;3.40;;;17.10;99.90;;;;;;5076718;28;20052;-62
2022/10/22 11:41:52;;;;;;;14.10;3.00;;;17.10;99.90;;;;;;5075570;28;20490;-64
2022/10/22 11:44:19;;;;;;;15.07;3.15;;;17.20;99.90;;;;;;5075351;28;20045;-62
2022/10/22 11:46:46;;;;;;;14.57;2.80;;;17.20;99.90;;;;;;5076211;28;20037;-65
2022/10/22 11:49:13;;;;;;;18.02;3.20;;;17.30;99.90;;;;;;5076667;28;20060;-63
2022/10/22 11:51:40;;;;;;;19.08;3.20;;;17.30;99.90;;;;;;5076343;28;20072;-64
2022/10/22 11:54:06;;;;;;;19.33;3.10;;;17.40;99.90;;;;;;5076258;28;20032;-65
2022/10/22 11:56:33;;;;;;;17.90;2.83;;;17.50;99.90;;;;;;5078788;28;20040;-64
2022/10/22 11:59:00;;;;;;;18.20;2.45;;;17.60;99.90;;;;;;5076910;28;20041;-63
2022/10/22 12:01:27;;;;;;;17.55;3.17;;;17.70;99.90;;;;;;5076781;28;20048;-63
2022/10/22 12:03:54;;;;;;;13.18;2.58;;;17.70;99.90;;;;;;5075984;28;20094;-64
2022/10/22 12:06:20;;;;;;;14.45;2.78;;;17.70;99.90;;;;;;5076011;28;20189;-62
2022/10/22 12:08:47;;;;;;;12.70;2.65;;;17.80;99.90;;;;;;5076244;28;20040;-63
2022/10/22 12:11:14;;;;;;;12.23;2.50;;;17.70;99.90;;;;;;5074353;28;20094;-64
2022/10/22 12:13:41;;;;;;;11.00;2.60;;;17.70;99.90;;;;;;5075505;28;20109;-62
2022/10/22 12:16:07;;;;;;;14.95;2.92;;;17.70;99.90;;;;;;5076081;28;20110;-63
2022/10/22 12:18:40;;;;;;;12.20;2.53;;;17.70;99.90;;;;;;5073691;28;20055;-64
2022/10/22 12:21:07;;;;;;;11.52;2.22;;;17.70;99.90;;;;;;5076087;28;20134;-64
2022/10/22 12:23:33;;;;;;;14.02;2.83;;;17.70;99.90;;;;;;5075131;28;20071;-60
2022/10/22 12:26:01;;;;;;;9.60;2.35;;;17.70;99.90;;;;;;5075788;28;20083;-61
2022/10/22 12:28:28;;;;;;;10.30;2.47;;;17.70;99.90;;;;;;5076067;28;20067;-62
2022/10/22 12:30:54;;;;;;;11.20;2.70;;;17.80;99.90;;;;;;5074302;28;20045;-63
2022/10/22 12:33:21;;;;;;;10.65;2.83;;;17.90;99.90;;;;;;5075956;28;20045;-64
2022/10/22 12:35:50;;;;;;;11.95;2.65;;;17.90;99.90;;;;;;5075720;28;20476;-64